Time;durP1;ratioP1;P1;durP2;ratioP2;P2;SDS_P1;SDS_P2;PMS_P1;PMS_P2;Temp;Humidity;BMP_temperature;BMP_pressure;BME280_temperature;BME280_humidity;BME280_pressure;Samples;Min_cycle;Max_cycle;Signal;HPM_P1;HPM_P2
2022/12/26 00:01:53;;;;;;;;;1.00;1.00;;;;;3.03;97.47;98539.53;4906721;28;103334;-75
2022/12/26 00:04:21;;;;;;;;;2.00;1.00;;;;;2.97;97.80;98532.97;4899849;28;101630;-75
2022/12/26 00:07:08;;;;;;;;;1.00;1.00;;;;;2.93;97.88;98520.09;4908883;28;101844;-75
2022/12/26 00:09:35;;;;;;;;;1.00;0.00;;;;;2.95;98.06;98526.13;4909949;28;101861;-75
2022/12/26 00:12:02;;;;;;;;;0.00;0.00;;;;;2.92;98.79;98523.78;4904429;28;103615;-73
2022/12/26 00:14:29;;;;;;;;;1.00;1.00;;;;;2.81;97.15;98521.34;4915198;28;101596;-75
2022/12/26 00:16:56;;;;;;;;;1.75;1.00;;;;;2.80;97.72;98530.34;4919379;28;101552;-76
2022/12/26 00:19:23;;;;;;;;;1.00;0.00;;;;;2.80;97.36;98535.66;4910569;28;102641;-75
2022/12/26 00:21:50;;;;;;;;;1.00;1.00;;;;;2.78;98.22;98516.31;4910115;28;103508;-75
2022/12/26 00:24:16;;;;;;;;;0.25;0.25;;;;;2.75;98.27;98521.97;4911022;28;101634;-75
2022/12/26 00:26:43;;;;;;;;;0.00;0.00;;;;;2.74;98.49;98525.63;4909372;28;101443;-75
2022/12/26 00:29:10;;;;;;;;;0.00;0.00;;;;;2.70;98.34;98525.91;4909800;28;101619;-75
2022/12/26 00:31:37;;;;;;;;;0.00;0.00;;;;;2.66;99.54;98521.88;4908397;28;103310;-74
2022/12/26 00:34:04;;;;;;;;;1.00;0.25;;;;;2.69;99.63;98507.41;4895009;28;101917;-75
2022/12/26 00:36:32;;;;;;;;;0.00;0.00;;;;;2.65;99.00;98501.53;4918041;28;101789;-75
2022/12/26 00:39:01;;;;;;;;;0.00;0.00;;;;;2.55;98.55;98506.09;4910965;28;101810;-75
2022/12/26 00:41:29;;;;;;;;;0.00;0.00;;;;;2.55;98.40;98519.47;4900263;28;108045;-75
2022/12/26 00:43:56;;;;;;;;;0.00;0.00;;;;;2.53;98.84;98510.75;4927634;28;101884;-75
2022/12/26 00:46:24;;;;;;;;;0.00;0.00;;;;;2.53;99.81;98513.41;4913244;28;101633;-74
2022/12/26 00:48:51;;;;;;;;;1.00;0.00;;;;;2.54;98.78;98517.78;4913268;28;102338;-74
2022/12/26 00:51:19;;;;;;;;;0.00;0.00;;;;;2.57;99.19;98504.09;4924210;28;102561;-74
2022/12/26 00:53:46;;;;;;;;;1.00;1.00;;;;;2.65;99.30;98503.38;4912515;28;101653;-74
2022/12/26 00:56:14;;;;;;;;;1.00;1.00;;;;;2.69;99.09;98499.41;4915085;28;101745;-74
2022/12/26 00:58:42;;;;;;;;;2.75;2.00;;;;;2.70;99.40;98503.75;4909794;28;102701;-74
2022/12/26 01:01:20;;;;;;;;;7.25;6.00;;;;;2.70;98.77;98509.91;4910918;28;103425;-75
2022/12/26 01:03:49;;;;;;;;;7.00;7.00;;;;;2.73;99.08;98513.25;4913453;28;101652;-75
2022/12/26 01:06:16;;;;;;;;;13.50;11.50;;;;;2.75;97.93;98505.94;4909462;28;101494;-75
2022/12/26 01:08:43;;;;;;;;;22.75;21.50;;;;;2.75;97.85;98501.44;4908788;28;101828;-74
2022/12/26 01:11:13;;;;;;;;;17.00;13.25;;;;;2.78;97.36;98511.81;4916024;28;103373;-75
2022/12/26 01:13:41;;;;;;;;;15.00;11.50;;;;;2.80;97.18;98511.63;4918563;28;102330;-74
2022/12/26 01:16:08;;;;;;;;;14.50;13.50;;;;;2.82;97.25;98513.19;4918506;28;101593;-74
2022/12/26 01:18:35;;;;;;;;;12.50;11.00;;;;;2.76;97.44;98512.94;4905466;28;102032;-74
2022/12/26 01:21:09;;;;;;;;;24.50;20.25;;;;;2.66;97.51;98518.38;4906434;28;103326;-73
2022/12/26 01:23:38;;;;;;;;;18.75;18.25;;;;;2.66;97.88;98521.88;4907320;28;101651;-73
2022/12/26 01:26:05;;;;;;;;;24.75;21.00;;;;;2.32;98.00;98469.34;4908305;28;102338;-75
2022/12/26 01:28:48;;;;;;;;;19.00;18.25;;;;;2.61;98.79;98510.00;4913423;28;102553;-75
2022/12/26 01:31:15;;;;;;;;;16.25;14.50;;;;;2.60;97.95;98516.31;4909496;28;103189;-75
2022/12/26 01:33:43;;;;;;;;;9.00;6.25;;;;;2.65;98.86;98517.56;4911415;28;104361;-75
2022/12/26 01:36:10;;;;;;;;;9.50;7.75;;;;;2.67;98.81;98504.03;4908957;28;101905;-75
2022/12/26 01:38:37;;;;;;;;;8.75;5.75;;;;;2.70;98.29;98506.41;4910697;28;102060;-74
2022/12/26 01:41:18;;;;;;;;;4.50;3.00;;;;;2.70;97.84;98503.75;4910919;28;103334;-74
2022/12/26 01:43:56;;;;;;;;;1.75;1.75;;;;;2.70;98.54;98509.09;4901425;28;102411;-75
2022/12/26 01:46:49;;;;;;;;;2.00;2.00;;;;;2.70;98.00;98501.88;4885798;28;101655;-75
2022/12/26 01:49:22;;;;;;;;;2.50;2.00;;;;;2.63;97.85;98495.50;4891277;28;101863;-74
2022/12/26 01:51:56;;;;;;;;;2.00;1.00;;;;;2.61;97.17;98489.47;4892655;28;103259;-75
2022/12/26 01:54:26;;;;;;;;;3.00;2.00;;;;;2.61;97.62;98488.66;4890110;28;101818;-75
2022/12/26 01:57:16;;;;;;;;;2.00;2.00;;;;;2.58;98.39;98476.44;4881708;28;101386;-75
2022/12/26 01:59:45;;;;;;;;;1.50;1.00;;;;;2.58;99.07;98472.94;4881915;28;104116;-75
2022/12/26 02:02:13;;;;;;;;;1.25;1.25;;;;;2.63;98.87;98476.81;4871169;28;103376;-75
2022/12/26 02:07:33;;;;;;;;;1.00;0.50;;;;;2.68;99.52;98473.69;4890780;28;102648;-75
2022/12/26 02:10:21;;;;;;;;;1.00;0.00;;;;;2.68;98.99;98477.19;4896941;28;102875;-74
2022/12/26 02:13:05;;;;;;;;;1.50;1.00;;;;;2.67;99.21;98477.34;4885399;28;106769;-75
2022/12/26 02:15:49;;;;;;;;;1.50;1.00;;;;;2.60;99.15;98446.94;4881412;28;102198;-75
2022/12/26 02:18:43;;;;;;;;;0.00;0.00;;;;;2.65;98.48;98434.81;4891459;28;101684;-75
2022/12/26 02:21:38;;;;;;;;;0.00;0.00;;;;;2.67;99.79;98430.13;4889716;28;101467;-75
2022/12/26 02:24:39;;;;;;;;;0.75;0.00;;;;;2.64;98.85;98414.44;4884078;28;106794;-75
2022/12/26 02:27:22;;;;;;;;;0.75;0.75;;;;;2.56;98.47;98411.72;4893345;28;109918;-75
2022/12/26 02:30:25;;;;;;;;;2.00;2.00;;;;;2.56;98.13;98414.38;4892801;28;102230;-73
2022/12/26 02:33:02;;;;;;;;;10.25;8.75;;;;;2.54;99.54;98424.38;4891661;28;101665;-74
2022/12/26 02:35:32;;;;;;;;;9.75;7.25;;;;;2.56;99.69;98425.06;4891733;28;107939;-75
2022/12/26 02:38:17;;;;;;;;;7.50;7.00;;;;;2.62;99.03;98436.94;4894619;28;102985;-75
2022/12/26 02:41:11;;;;;;;;;18.00;13.25;;;;;2.63;99.25;98431.44;4894204;28;101677;-75
2022/12/26 02:43:52;;;;;;;;;12.50;10.75;;;;;2.67;99.45;98424.78;4893078;28;101659;-75
2022/12/26 02:49:22;;;;;;;;;6.75;6.00;;;;;2.61;99.00;98428.06;4920331;28;101843;-75
2022/12/26 03:15:26;;;;;;;;;5.00;3.00;;;;;2.13;99.18;98419.66;4907285;28;102859;-74
2022/12/26 03:18:04;;;;;;;;;2.75;2.25;;;;;2.07;99.08;98415.78;4911121;28;101743;-74
2022/12/26 03:20:34;;;;;;;;;5.25;3.50;;;;;2.04;98.28;98417.91;4911874;28;107630;-74
2022/12/26 03:23:14;;;;;;;;;2.25;2.25;;;;;1.95;98.21;98401.00;4913424;28;101615;-74
2022/12/26 03:28:29;;;;;;;;;6.00;6.00;;;;;1.63;98.26;98372.19;4914922;28;101841;-74
2022/12/26 03:31:00;;;;;;;;;6.50;5.00;;;;;1.63;98.95;98366.00;4913640;28;103385;-75
2022/12/26 03:36:30;;;;;;;;;10.50;5.75;;;;;1.51;99.42;98365.41;4907337;28;101781;-75
2022/12/26 03:39:12;;;;;;;;;5.50;4.50;;;;;1.50;99.63;98382.38;4907748;28;101886;-75
2022/12/26 04:20:29;;;;;;;;;31.67;27.33;;;;;1.51;100.00;98362.75;4908572;28;102940;-75
2022/12/26 04:46:30;;;;;;;;;6.00;6.00;;;;;1.29;100.00;98384.47;4923178;28;102755;-74
2022/12/26 04:51:48;;;;;;;;;6.75;6.00;;;;;1.28;99.39;98391.59;4911956;28;107822;-74
2022/12/26 04:54:15;;;;;;;;;4.25;3.25;;;;;1.24;100.00;98389.38;4896779;28;101623;-74
2022/12/26 04:56:42;;;;;;;;;2.00;2.00;;;;;1.17;99.71;98381.13;4898962;28;102954;-74
2022/12/26 04:59:09;;;;;;;;;4.00;2.00;;;;;1.12;100.00;98380.78;4921051;28;101748;-74
2022/12/26 05:10:03;;;;;;;;;2.00;1.50;;;;;0.98;99.63;98383.06;4920755;28;101816;-74
2022/12/26 05:12:30;;;;;;;;;2.00;2.00;;;;;0.90;99.92;98376.63;4911735;28;103475;-74
2022/12/26 05:14:57;;;;;;;;;3.50;1.00;;;;;0.95;100.00;98378.00;4917505;28;101613;-75
2022/12/26 05:28:42;;;;;;;;;2.00;1.00;;;;;1.15;100.00;98350.34;4910044;28;101560;-74
2022/12/26 05:31:15;;;;;;;;;2.25;1.00;;;;;1.24;100.00;98352.09;4918433;28;101908;-74
2022/12/26 05:36:39;;;;;;;;;0.00;0.00;;;;;1.41;100.00;98369.94;4916974;28;102753;-74
2022/12/26 05:39:08;;;;;;;;;0.75;0.75;;;;;1.52;100.00;98388.41;4919668;28;101800;-74
2022/12/26 05:41:36;;;;;;;;;1.00;1.00;;;;;1.54;100.00;98374.91;4897886;28;101874;-74
2022/12/26 05:44:04;;;;;;;;;1.00;0.25;;;;;1.68;100.00;98396.56;4889717;28;108503;-74
2022/12/26 05:46:32;;;;;;;;;1.00;1.00;;;;;1.78;100.00;98384.00;4909970;28;102109;-74
2022/12/26 05:48:59;;;;;;;;;2.00;2.00;;;;;1.85;100.00;98380.75;4904835;28;101764;-73
2022/12/26 05:51:26;;;;;;;;;1.00;1.00;;;;;1.92;100.00;98379.97;4919887;28;101513;-74
2022/12/26 05:53:53;;;;;;;;;3.00;1.00;;;;;1.97;100.00;98380.38;4913257;28;103377;-75
2022/12/26 05:56:20;;;;;;;;;1.00;1.00;;;;;2.04;100.00;98380.59;4895088;28;101648;-75
2022/12/26 05:58:56;;;;;;;;;0.50;0.50;;;;;2.10;100.00;98374.66;4910249;28;102798;-75
2022/12/26 06:01:26;;;;;;;;;1.75;1.00;;;;;2.16;100.00;98376.72;4907185;28;101737;-74
2022/12/26 06:03:56;;;;;;;;;0.25;0.25;;;;;2.22;100.00;98370.75;4905998;28;103344;-74
2022/12/26 06:06:24;;;;;;;;;3.00;1.00;;;;;2.27;100.00;98371.13;4905795;28;101990;-75
2022/12/26 06:08:53;;;;;;;;;1.00;0.00;;;;;2.32;100.00;98365.31;4909946;28;103509;-74
2022/12/26 06:11:21;;;;;;;;;0.00;0.00;;;;;2.37;100.00;98368.38;4920617;28;101636;-74
2022/12/26 06:13:48;;;;;;;;;1.00;1.00;;;;;2.42;100.00;98363.41;4920970;28;105198;-74
2022/12/26 06:16:17;;;;;;;;;1.50;1.00;;;;;2.44;100.00;98364.91;4916549;28;101682;-74
2022/12/26 06:18:44;;;;;;;;;0.00;0.00;;;;;2.51;100.00;98371.31;4921582;28;101603;-73
2022/12/26 06:21:14;;;;;;;;;0.75;0.75;;;;;2.55;100.00;98364.66;4904745;28;101546;-73
2022/12/26 06:23:41;;;;;;;;;0.00;0.00;;;;;2.61;100.00;98364.03;4912521;28;103407;-74
2022/12/26 06:26:11;;;;;;;;;0.50;0.00;;;;;2.67;100.00;98363.41;4909283;28;101674;-73
2022/12/26 06:28:40;;;;;;;;;0.00;0.00;;;;;2.80;100.00;98370.16;4913969;28;101485;-72
2022/12/26 06:31:19;;;;;;;;;0.00;0.00;;;;;2.90;100.00;98376.22;4903164;28;101671;-72
2022/12/26 06:33:48;;;;;;;;;0.25;0.25;;;;;2.95;100.00;98369.41;4919322;28;103568;-74
2022/12/26 06:36:21;;;;;;;;;1.25;1.00;;;;;3.02;100.00;98370.44;4908882;28;101810;-74
2022/12/26 06:38:48;;;;;;;;;1.25;1.00;;;;;3.09;100.00;98381.34;4907093;28;102293;-73
2022/12/26 06:41:19;;;;;;;;;1.00;1.00;;;;;3.13;100.00;98366.66;4914577;28;102811;-73
2022/12/26 06:43:46;;;;;;;;;1.00;1.00;;;;;3.13;100.00;98372.00;4932372;28;103321;-74
2022/12/26 06:46:16;;;;;;;;;1.00;1.00;;;;;3.20;100.00;98372.22;4919915;28;101584;-75
2022/12/26 06:48:43;;;;;;;;;2.75;1.75;;;;;3.25;100.00;98376.06;4919029;28;101693;-73
2022/12/26 06:51:18;;;;;;;;;1.75;0.75;;;;;3.31;100.00;98375.44;4916738;28;103293;-74
2022/12/26 06:53:45;;;;;;;;;2.50;2.50;;;;;3.40;100.00;98382.47;4907436;28;103369;-73
2022/12/26 06:56:16;;;;;;;;;4.00;4.00;;;;;3.50;100.00;98383.19;4913721;28;101951;-73
2022/12/26 06:58:43;;;;;;;;;3.25;2.00;;;;;3.60;100.00;98399.91;4917930;28;101555;-74
2022/12/26 07:01:17;;;;;;;;;3.00;2.75;;;;;3.72;100.00;98395.13;4912062;28;101770;-74
2022/12/26 07:03:46;;;;;;;;;2.75;2.50;;;;;3.84;100.00;98403.66;4911332;28;103474;-74
2022/12/26 07:06:27;;;;;;;;;1.75;1.00;;;;;3.92;100.00;98412.53;4901083;28;104789;-74
2022/12/26 07:09:00;;;;;;;;;2.00;1.00;;;;;4.01;100.00;98421.41;4930964;28;101636;-74
2022/12/26 07:11:30;;;;;;;;;1.75;1.25;;;;;4.08;100.00;98416.25;4918260;28;101622;-74
2022/12/26 07:13:58;;;;;;;;;1.00;1.00;;;;;4.13;100.00;98404.06;4894144;28;103462;-74
2022/12/26 07:16:26;;;;;;;;;3.00;1.50;;;;;4.17;100.00;98377.81;4916951;28;101772;-74
2022/12/26 07:18:55;;;;;;;;;1.75;1.00;;;;;4.27;100.00;98368.63;4907716;28;108594;-74
2022/12/26 07:21:23;;;;;;;;;5.00;1.00;;;;;4.34;100.00;98369.63;4912040;28;101793;-75
2022/12/26 07:23:50;;;;;;;;;0.00;0.00;;;;;4.41;100.00;98377.81;4911422;28;103352;-76
2022/12/26 07:26:18;;;;;;;;;0.00;0.00;;;;;4.48;100.00;98386.84;4921855;28;103103;-76
2022/12/26 07:28:45;;;;;;;;;0.00;0.00;;;;;4.49;100.00;98377.81;4930210;28;101545;-74
2022/12/26 07:31:19;;;;;;;;;0.00;0.00;;;;;4.65;100.00;98407.25;4922613;28;101770;-74
2022/12/26 07:33:50;;;;;;;;;1.00;0.00;;;;;4.71;100.00;98411.09;4909677;28;102983;-74
2022/12/26 07:36:23;;;;;;;;;0.50;0.00;;;;;4.84;100.00;98419.44;4904720;28;101393;-74
2022/12/26 07:38:51;;;;;;;;;0.00;0.00;;;;;4.95;100.00;98408.41;4903069;28;101577;-74
2022/12/26 07:44:05;;;;;;;;;0.00;0.00;;;;;5.08;100.00;98387.25;4909322;28;103467;-74
2022/12/26 07:46:32;;;;;;;;;0.75;0.75;;;;;5.19;100.00;98396.75;4906796;28;101666;-75
2022/12/26 07:48:59;;;;;;;;;1.00;0.00;;;;;5.31;100.00;98412.28;4905393;28;101644;-74
2022/12/26 07:51:27;;;;;;;;;3.50;2.00;;;;;5.48;100.00;98412.25;4916524;28;103614;-73
2022/12/26 07:53:54;;;;;;;;;2.00;2.00;;;;;5.51;100.00;98371.69;4911008;28;102956;-74
2022/12/26 07:56:21;;;;;;;;;3.00;3.00;;;;;5.72;100.00;98399.56;4906598;28;102169;-74
2022/12/26 07:58:51;;;;;;;;;5.00;4.75;;;;;5.80;100.00;98399.53;4912187;28;101846;-75
2022/12/26 08:01:18;;;;;;;;;4.00;2.00;;;;;5.92;100.00;98401.84;4908509;28;101917;-75
2022/12/26 08:03:47;;;;;;;;;4.00;2.50;;;;;6.10;100.00;98402.41;4906611;28;103426;-75
2022/12/26 08:06:16;;;;;;;;;7.00;6.00;;;;;6.19;100.00;98401.34;4894504;28;102651;-74
2022/12/26 08:08:44;;;;;;;;;5.25;2.25;;;;;6.28;100.00;98405.63;4904310;28;101734;-74
2022/12/26 08:11:20;;;;;;;;;2.75;2.25;;;;;6.34;100.00;98396.03;4887782;28;101940;-74
2022/12/26 08:13:47;;;;;;;;;6.00;3.50;;;;;6.40;100.00;98406.03;4901179;28;103494;-75
2022/12/26 08:16:15;;;;;;;;;6.50;4.00;;;;;6.42;100.00;98398.66;4906132;28;101910;-74
2022/12/26 08:18:42;;;;;;;;;4.50;2.50;;;;;6.49;99.71;98399.59;4907957;28;101453;-74
2022/12/26 08:21:11;;;;;;;;;5.50;3.25;;;;;6.62;98.82;98419.47;4905980;28;101533;-75
2022/12/26 08:23:38;;;;;;;;;4.50;3.75;;;;;6.72;98.70;98413.84;4908775;28;107783;-75
2022/12/26 08:26:07;;;;;;;;;2.50;2.50;;;;;6.75;98.35;98402.75;4914542;28;101561;-75
2022/12/26 08:28:35;;;;;;;;;3.00;2.50;;;;;6.84;98.87;98396.28;4902225;28;101350;-75
2022/12/26 08:31:09;;;;;;;;;2.00;2.00;;;;;6.95;98.19;98395.84;4909505;28;102906;-75
2022/12/26 08:33:36;;;;;;;;;1.75;1.75;;;;;7.01;98.64;98397.78;4908351;28;108015;-74
2022/12/26 08:36:05;;;;;;;;;2.50;2.00;;;;;7.05;98.27;98391.03;4910641;28;103071;-75
2022/12/26 08:38:32;;;;;;;;;1.25;1.00;;;;;7.08;97.92;98401.41;4907888;28;101491;-74
2022/12/26 08:41:00;;;;;;;;;2.00;1.75;;;;;7.21;97.04;98427.66;4907588;28;101835;-74
2022/12/26 08:43:27;;;;;;;;;1.50;1.50;;;;;7.16;96.52;98422.00;4903313;28;103334;-75
2022/12/26 08:46:14;;;;;;;;;2.75;1.75;;;;;7.24;96.94;98429.16;4886788;28;101584;-75
2022/12/26 08:48:42;;;;;;;;;1.00;1.00;;;;;7.22;96.85;98426.63;4916860;28;101938;-73
2022/12/26 08:51:18;;;;;;;;;0.50;0.50;;;;;7.30;97.13;98420.34;4912593;28;101662;-74
2022/12/26 08:53:45;;;;;;;;;0.25;0.25;;;;;7.30;97.61;98413.09;4911833;28;107719;-77
2022/12/26 08:56:15;;;;;;;;;0.00;0.00;;;;;7.37;97.56;98405.97;4915355;28;102059;-75
2022/12/26 08:58:43;;;;;;;;;1.00;0.00;;;;;7.43;97.02;98396.34;4912654;28;101638;-74
2022/12/26 09:01:22;;;;;;;;;3.75;2.25;;;;;7.44;95.88;98398.81;4916123;28;104661;-74
2022/12/26 09:03:54;;;;;;;;;2.00;2.00;;;;;7.55;96.18;98416.38;4913161;28;107827;-74
2022/12/26 09:06:21;;;;;;;;;2.25;2.00;;;;;7.56;96.00;98409.97;4910082;28;103527;-74
2022/12/26 09:08:48;;;;;;;;;2.75;1.75;;;;;7.63;95.73;98402.81;4903824;28;102989;-74
2022/12/26 09:11:18;;;;;;;;;2.00;1.75;;;;;7.71;95.82;98418.84;4911612;28;102102;-74
2022/12/26 09:13:46;;;;;;;;;0.25;0.25;;;;;7.70;95.99;98403.72;4912587;28;102556;-73
2022/12/26 09:16:25;;;;;;;;;3.25;1.75;;;;;7.73;94.92;98407.91;4909056;28;101730;-73
2022/12/26 09:19:03;;;;;;;;;1.50;1.00;;;;;7.76;95.12;98408.34;4905821;28;101784;-74
2022/12/26 09:21:31;;;;;;;;;1.50;1.50;;;;;7.74;95.33;98386.19;4909562;28;101682;-75
2022/12/26 09:24:02;;;;;;;;;1.75;1.75;;;;;7.85;95.35;98395.63;4903361;28;103038;-75
2022/12/26 09:26:30;;;;;;;;;2.00;2.00;;;;;7.86;96.27;98398.13;4915788;28;101452;-74
2022/12/26 09:28:57;;;;;;;;;3.75;3.00;;;;;7.89;95.85;98402.28;4909174;28;101705;-74
2022/12/26 09:31:26;;;;;;;;;0.00;0.00;;;;;7.87;95.11;98389.03;4910058;28;101640;-74
2022/12/26 09:33:53;;;;;;;;;1.25;0.00;;;;;7.93;96.33;98384.72;4910182;28;103591;-74
2022/12/26 09:36:26;;;;;;;;;1.00;1.00;;;;;7.98;96.07;98395.78;4911123;28;102781;-74
2022/12/26 09:38:55;;;;;;;;;1.00;0.25;;;;;7.78;95.99;98357.88;4871584;28;101444;-75
2022/12/26 09:41:35;;;;;;;;;0.75;0.75;;;;;8.01;94.73;98390.03;4873146;28;101839;-75
2022/12/26 09:44:20;;;;;;;;;0.75;0.50;;;;;8.04;94.15;98405.78;4906816;28;103469;-75
2022/12/26 09:47:16;;;;;;;;;3.00;2.00;;;;;8.07;94.18;98405.41;4909302;28;101843;-75
2022/12/26 09:49:53;;;;;;;;;1.50;1.00;;;;;8.12;94.62;98402.97;4913491;28;101858;-74
2022/12/26 09:52:40;;;;;;;;;1.25;1.00;;;;;8.13;93.54;98415.44;4913207;28;101682;-75
2022/12/26 09:55:26;;;;;;;;;2.00;1.25;;;;;8.14;92.76;98416.25;4907424;28;108147;-75
2022/12/26 09:57:57;;;;;;;;;2.00;2.00;;;;;8.06;93.52;98415.34;4910457;28;101644;-74
2022/12/26 10:00:28;;;;;;;;;5.00;3.00;;;;;8.05;93.14;98407.47;4915323;28;102276;-75
2022/12/26 10:02:57;;;;;;;;;2.50;2.00;;;;;8.13;92.83;98430.75;4907565;28;101807;-75
2022/12/26 10:05:41;;;;;;;;;3.75;3.00;;;;;8.13;93.01;98414.59;4903636;28;103357;-75
2022/12/26 10:08:20;;;;;;;;;4.00;2.00;;;;;8.14;92.96;98411.72;4910016;28;101904;-75
2022/12/26 10:11:00;;;;;;;;;2.00;2.00;;;;;8.19;93.28;98397.69;4908516;28;102145;-75
2022/12/26 10:13:50;;;;;;;;;2.50;2.00;;;;;8.24;94.99;98387.19;4907112;28;101810;-74
2022/12/26 10:16:40;;;;;;;;;2.50;1.50;;;;;8.21;94.86;98369.53;4888932;28;107251;-74
2022/12/26 10:19:43;;;;;;;;;3.00;2.00;;;;;8.29;95.62;98371.25;4914792;28;102960;-74
2022/12/26 10:22:28;;;;;;;;;2.25;2.25;;;;;8.32;95.32;98362.84;4907935;28;101633;-74
2022/12/26 10:24:58;;;;;;;;;1.75;1.00;;;;;8.33;95.71;98369.91;4908219;28;103103;-75
2022/12/26 10:27:34;;;;;;;;;1.00;1.00;;;;;8.29;95.52;98365.84;4910949;28;103822;-75
2022/12/26 10:30:07;;;;;;;;;1.00;1.00;;;;;8.29;94.43;98372.13;4905345;28;102109;-78
2022/12/26 10:32:45;;;;;;;;;2.75;1.50;;;;;8.34;94.17;98385.84;4906886;28;101552;-75
2022/12/26 10:35:36;;;;;;;;;2.25;1.25;;;;;8.33;94.43;98384.16;4899609;28;101971;-74
2022/12/26 10:38:14;;;;;;;;;3.00;1.00;;;;;8.37;95.25;98373.88;4913581;28;102447;-74
2022/12/26 10:40:45;;;;;;;;;3.00;1.00;;;;;8.37;94.53;98384.66;4904180;28;103027;-74
2022/12/26 10:43:23;;;;;;;;;1.00;1.00;;;;;8.39;95.87;98377.19;4901133;28;102010;-75
2022/12/26 10:46:24;;;;;;;;;2.50;2.00;;;;;8.29;94.18;98372.13;4906828;28;102640;-75
2022/12/26 10:48:52;;;;;;;;;1.00;1.00;;;;;8.34;95.53;98369.69;4912741;28;107947;-74
2022/12/26 10:51:19;;;;;;;;;1.75;1.75;;;;;8.36;94.44;98373.03;4909433;28;101447;-74
2022/12/26 10:53:49;;;;;;;;;2.00;1.00;;;;;8.38;95.24;98362.03;4910144;28;109507;-76
2022/12/26 10:56:17;;;;;;;;;1.00;1.00;;;;;8.36;94.95;98348.78;4909009;28;101926;-75
2022/12/26 10:58:45;;;;;;;;;2.50;2.00;;;;;8.41;94.47;98354.44;4906748;28;103378;-74
2022/12/26 11:01:27;;;;;;;;;3.00;2.00;;;;;8.46;95.50;98345.75;4910672;28;102016;-74
2022/12/26 11:03:56;;;;;;;;;1.75;1.50;;;;;8.43;95.79;98341.59;4911961;28;101994;-76
2022/12/26 11:06:29;;;;;;;;;1.00;1.00;;;;;8.49;95.65;98342.66;4913414;28;101849;-76
2022/12/26 11:08:57;;;;;;;;;2.00;1.75;;;;;8.44;94.05;98354.03;4904429;28;103533;-76
2022/12/26 11:11:47;;;;;;;;;7.50;5.00;;;;;8.45;94.13;98354.88;4907764;28;101967;-76
2022/12/26 11:14:29;;;;;;;;;4.00;3.50;;;;;8.51;93.84;98354.91;4905148;28;101742;-75
2022/12/26 11:17:04;;;;;;;;;8.00;6.00;;;;;8.49;93.56;98358.84;4907221;28;101843;-75
2022/12/26 11:19:37;;;;;;;;;3.25;2.50;;;;;8.51;93.28;98338.75;4909426;28;103410;-75
2022/12/26 11:22:27;;;;;;;;;6.75;4.00;;;;;8.54;93.56;98340.22;4913600;28;101717;-74
2022/12/26 11:25:17;;;;;;;;;3.00;2.00;;;;;8.54;92.95;98326.75;4905953;28;101486;-74
2022/12/26 11:27:54;;;;;;;;;3.25;3.25;;;;;8.64;91.38;98332.66;4906963;28;103494;-76
2022/12/26 11:30:37;;;;;;;;;2.00;2.00;;;;;8.65;91.67;98331.59;4907849;28;103355;-75
2022/12/26 11:33:25;;;;;;;;;3.00;3.00;;;;;8.65;90.94;98338.84;4905217;28;101868;-75
2022/12/26 11:36:15;;;;;;;;;6.25;3.00;;;;;8.62;90.99;98326.63;4912042;28;101683;-75
2022/12/26 11:38:49;;;;;;;;;3.00;3.00;;;;;8.61;90.47;98321.41;4898367;28;102858;-73
2022/12/26 11:41:31;;;;;;;;;3.25;2.75;;;;;8.62;90.31;98323.91;4900815;28;103748;-74
2022/12/26 11:44:19;;;;;;;;;3.00;2.75;;;;;8.63;89.36;98325.59;4905189;28;101814;-74
2022/12/26 11:47:00;;;;;;;;;3.50;3.00;;;;;8.47;89.48;98293.53;4913557;28;103744;-74
2022/12/26 11:49:59;;;;;;;;;3.00;3.00;;;;;8.72;89.61;98327.13;4895913;28;101442;-75
2022/12/26 11:52:50;;;;;;;;;3.00;2.75;;;;;8.76;88.24;98319.47;4902088;28;108426;-75
2022/12/26 11:55:23;;;;;;;;;5.00;3.00;;;;;8.76;88.41;98320.28;4906648;28;101338;-75
2022/12/26 11:58:05;;;;;;;;;3.75;3.25;;;;;8.79;88.45;98313.66;4917211;28;101959;-74
2022/12/26 12:00:34;;;;;;;;;3.00;3.00;;;;;8.80;87.94;98315.34;4907271;28;101884;-74
2022/12/26 12:03:09;;;;;;;;;2.25;2.00;;;;;8.83;88.74;98315.78;4915556;28;103403;-75
2022/12/26 12:06:01;;;;;;;;;4.25;2.75;;;;;8.88;88.41;98324.09;4904416;28;101943;-74
2022/12/26 12:09:00;;;;;;;;;2.00;2.00;;;;;8.94;87.35;98331.41;4889604;28;101756;-76
2022/12/26 12:11:57;;;;;;;;;2.00;2.00;;;;;8.81;87.07;98300.84;4907366;28;104928;-75
2022/12/26 12:14:30;;;;;;;;;2.00;2.00;;;;;9.05;87.49;98313.03;4901816;28;107857;-75
2022/12/26 12:17:15;;;;;;;;;2.25;2.25;;;;;9.07;85.82;98294.78;4908675;28;101854;-74
2022/12/26 12:19:49;;;;;;;;;3.75;3.00;;;;;9.10;86.06;98305.16;4905111;28;101608;-74
2022/12/26 12:22:53;;;;;;;;;3.00;2.75;;;;;9.16;85.94;98301.66;4912677;28;101714;-74
2022/12/26 12:25:35;;;;;;;;;5.25;3.75;;;;;9.23;85.09;98307.94;4923375;28;107214;-74
2022/12/26 12:28:20;;;;;;;;;4.50;4.00;;;;;9.31;84.92;98296.97;4910486;28;103319;-75
2022/12/26 12:31:07;;;;;;;;;3.50;3.00;;;;;9.39;84.40;98300.34;4908156;28;101817;-75
2022/12/26 12:33:52;;;;;;;;;4.00;3.25;;;;;9.43;83.51;98306.16;4909387;28;101570;-75
2022/12/26 12:36:35;;;;;;;;;4.50;4.00;;;;;9.48;83.85;98297.47;4907624;28;107705;-75
2022/12/26 12:39:15;;;;;;;;;3.00;3.00;;;;;9.53;83.47;98298.53;4909139;28;110311;-75
2022/12/26 12:42:13;;;;;;;;;3.50;3.50;;;;;9.56;81.96;98300.81;4916461;28;101592;-75
2022/12/26 12:45:07;;;;;;;;;5.50;4.50;;;;;9.50;82.04;98301.63;4912293;28;101596;-75
2022/12/26 12:48:05;;;;;;;;;7.00;6.75;;;;;9.58;81.76;98281.72;4907741;28;107733;-74
2022/12/26 12:50:41;;;;;;;;;5.50;5.25;;;;;9.57;81.17;98297.09;4892080;28;101569;-75
2022/12/26 12:53:39;;;;;;;;;4.50;4.25;;;;;9.58;81.62;98303.31;4908731;28;102779;-75
2022/12/26 12:56:09;;;;;;;;;8.75;7.00;;;;;9.58;81.28;98297.94;4908695;28;101716;-75
2022/12/26 12:58:45;;;;;;;;;6.75;6.25;;;;;9.60;81.77;98290.44;4914851;28;103355;-75
2022/12/26 13:01:33;;;;;;;;;6.25;6.00;;;;;9.59;80.24;98286.09;4912202;28;103337;-74
2022/12/26 13:04:13;;;;;;;;;7.00;4.25;;;;;9.60;80.95;98295.84;4916063;28;101884;-75
2022/12/26 13:06:50;;;;;;;;;4.75;4.75;;;;;9.61;81.67;98298.34;4929981;28;101877;-74
2022/12/26 13:09:43;;;;;;;;;5.25;4.00;;;;;9.62;81.55;98300.03;4908381;28;110781;-75
2022/12/26 13:12:34;;;;;;;;;2.50;2.50;;;;;9.62;81.50;98300.03;4909487;28;102218;-75
2022/12/26 13:15:27;;;;;;;;;3.00;2.25;;;;;9.63;80.94;98304.38;4907418;28;101734;-75
2022/12/26 13:18:09;;;;;;;;;3.75;3.00;;;;;9.62;80.96;98310.81;4918274;28;101876;-75
2022/12/26 13:20:43;;;;;;;;;4.75;4.00;;;;;9.63;81.66;98311.66;4916101;28;103481;-75
2022/12/26 13:26:19;;;;;;;;;7.00;4.25;;;;;9.66;79.84;98313.94;4906268;28;101596;-75
2022/12/26 13:29:09;;;;;;;;;6.00;5.00;;;;;9.64;80.23;98303.31;4910635;28;101828;-77
2022/12/26 13:31:38;;;;;;;;;6.00;5.00;;;;;9.66;80.55;98303.97;4916550;28;103483;-75
2022/12/26 13:34:18;;;;;;;;;5.75;4.00;;;;;9.65;80.70;98299.59;4910129;28;101515;-75
2022/12/26 13:36:48;;;;;;;;;4.00;4.00;;;;;9.62;80.43;98289.22;4913742;28;101633;-76
2022/12/26 13:39:24;;;;;;;;;6.50;4.75;;;;;9.65;79.69;98299.59;4917615;28;101718;-75
2022/12/26 13:44:42;;;;;;;;;4.00;4.00;;;;;9.62;80.62;98299.19;4907729;28;101575;-75
2022/12/26 13:47:37;;;;;;;;;6.50;4.00;;;;;9.63;82.14;98296.28;4910525;28;101967;-74
2022/12/26 13:50:42;;;;;;;;;5.00;5.00;;;;;9.63;80.36;98295.47;4892860;28;101666;-74
2022/12/26 13:53:24;;;;;;;;;4.00;4.00;;;;;9.61;80.69;98292.13;4903234;28;108019;-75
2022/12/26 13:56:13;;;;;;;;;4.75;4.75;;;;;9.63;80.16;98312.50;4927198;28;102012;-75
2022/12/26 13:59:17;;;;;;;;;7.50;4.00;;;;;9.62;80.29;98307.28;4929535;28;101919;-75
2022/12/26 14:02:02;;;;;;;;;6.00;3.50;;;;;9.61;81.19;98298.34;4910356;28;102067;-75
2022/12/26 14:04:56;;;;;;;;;3.25;3.25;;;;;9.60;80.56;98309.34;4901311;28;103644;-76
2022/12/26 14:07:39;;;;;;;;;5.00;3.75;;;;;9.58;80.96;98309.56;4899124;28;101906;-74
2022/12/26 14:10:42;;;;;;;;;4.50;4.50;;;;;9.62;80.76;98309.97;4915056;28;101675;-75
2022/12/26 14:13:20;;;;;;;;;5.00;4.00;;;;;9.56;82.61;98295.41;4833477;28;102373;-75
2022/12/26 14:15:56;;;;;;;;;4.50;4.00;;;;;9.57;80.93;98298.94;4893166;28;107792;-75
2022/12/26 14:18:38;;;;;;;;;3.50;2.75;;;;;9.57;80.53;98297.09;4905730;28;107927;-74
2022/12/26 14:21:17;;;;;;;;;4.00;4.00;;;;;9.57;81.91;98296.25;4916120;28;101778;-74